Time;durP1;ratioP1;P1;durP2;ratioP2;P2;SDS_P1;SDS_P2;PMS_P1;PMS_P2;Temp;Humidity;BMP_temperature;BMP_pressure;BME280_temperature;BME280_humidity;BME280_pressure;Samples;Min_cycle;Max_cycle;Signal;HPM_P1;HPM_P2
2023/09/28 00:00:34;;;;;;;5.50;2.57;;;18.80;99.90;;;;;;4967411;28;20997;-80
2023/09/28 00:02:42;;;;;;;5.80;3.03;;;18.70;99.90;;;;;;4972898;28;20462;-80
2023/09/28 00:05:10;;;;;;;3.93;2.80;;;18.70;99.90;;;;;;4975898;28;20506;-80
2023/09/28 00:07:36;;;;;;;3.23;2.73;;;18.70;99.90;;;;;;4976780;28;21141;-80
2023/09/28 00:10:05;;;;;;;4.80;3.80;;;18.70;99.90;;;;;;4975432;28;20539;-80
2023/09/28 00:12:31;;;;;;;5.90;3.30;;;18.70;99.90;;;;;;4974875;28;20228;-79
2023/09/28 00:14:58;;;;;;;4.57;3.07;;;18.80;99.90;;;;;;4976195;28;20466;-80
2023/09/28 00:17:24;;;;;;;2.87;2.57;;;18.80;99.90;;;;;;4975033;28;20212;-80
2023/09/28 00:19:51;;;;;;;5.17;3.60;;;18.80;99.90;;;;;;4970310;28;20542;-80
2023/09/28 00:22:17;;;;;;;4.03;3.27;;;18.80;99.90;;;;;;4975660;28;20459;-80
2023/09/28 00:24:44;;;;;;;3.87;3.30;;;18.80;99.90;;;;;;4975428;28;20542;-80
2023/09/28 00:27:11;;;;;;;4.20;3.20;;;18.80;99.90;;;;;;4975209;28;20281;-80
2023/09/28 00:29:39;;;;;;;3.37;2.60;;;18.80;99.90;;;;;;4975573;28;20471;-80
2023/09/28 00:32:04;;;;;;;2.93;2.50;;;18.80;99.90;;;;;;4975825;28;20470;-80
2023/09/28 00:34:31;;;;;;;3.80;2.83;;;18.80;99.90;;;;;;4975118;28;20451;-80
2023/09/28 00:36:57;;;;;;;3.20;2.50;;;18.80;99.90;;;;;;4974892;28;20217;-79
2023/09/28 00:39:24;;;;;;;3.13;2.77;;;18.80;99.90;;;;;;4974834;28;20491;-80
2023/09/28 00:41:49;;;;;;;3.67;2.63;;;18.70;99.90;;;;;;4974518;28;20306;-80
2023/09/28 00:44:18;;;;;;;3.13;2.63;;;18.70;99.90;;;;;;4975288;28;20498;-80
2023/09/28 00:46:44;;;;;;;3.40;2.90;;;18.70;99.90;;;;;;4975610;28;20212;-80
2023/09/28 00:49:16;;;;;;;3.60;2.90;;;18.60;99.90;;;;;;4974993;28;20514;-80
2023/09/28 00:51:43;;;;;;;5.77;2.83;;;18.70;99.90;;;;;;4974918;28;20542;-81
2023/09/28 00:54:11;;;;;;;3.47;3.10;;;18.70;99.90;;;;;;4975517;28;20459;-80
2023/09/28 00:56:37;;;;;;;3.50;2.70;;;18.60;99.90;;;;;;4974625;28;20455;-79
2023/09/28 00:59:04;;;;;;;5.40;3.60;;;18.70;99.90;;;;;;4975496;28;20458;-79
2023/09/28 01:01:31;;;;;;;3.10;2.80;;;18.60;99.90;;;;;;4975170;28;20493;-79
2023/09/28 01:04:03;;;;;;;3.27;2.60;;;18.70;99.90;;;;;;4975709;28;20459;-80
2023/09/28 01:06:30;;;;;;;3.63;3.00;;;18.70;99.90;;;;;;4974487;28;20458;-80
2023/09/28 01:08:57;;;;;;;3.07;2.77;;;18.70;99.90;;;;;;4974765;28;20514;-80
2023/09/28 01:11:24;;;;;;;4.53;2.87;;;18.60;99.90;;;;;;4976351;28;20474;-81
2023/09/28 01:13:52;;;;;;;3.70;2.70;;;18.70;99.90;;;;;;4979076;28;20534;-80
2023/09/28 01:16:19;;;;;;;4.53;3.07;;;18.60;99.90;;;;;;4978407;28;20545;-81
2023/09/28 01:18:47;;;;;;;3.83;3.30;;;18.60;99.90;;;;;;4980646;28;20459;-81
2023/09/28 01:21:13;;;;;;;5.00;3.30;;;18.60;99.90;;;;;;4981251;28;21017;-80
2023/09/28 01:23:41;;;;;;;3.40;3.10;;;18.60;99.90;;;;;;4981204;28;20466;-80
2023/09/28 01:26:07;;;;;;;4.10;3.17;;;18.60;99.90;;;;;;4981242;28;20470;-80
2023/09/28 01:28:34;;;;;;;4.40;3.10;;;18.60;99.90;;;;;;4980892;28;20550;-80
2023/09/28 01:31:01;;;;;;;4.60;3.40;;;18.60;99.90;;;;;;4980208;28;20224;-80
2023/09/28 01:33:29;;;;;;;3.80;2.80;;;18.50;99.90;;;;;;4980533;28;20487;-80
2023/09/28 01:35:55;;;;;;;3.90;2.90;;;18.50;99.90;;;;;;4972928;28;20456;-80
2023/09/28 01:38:29;;;;;;;4.40;3.20;;;18.50;99.90;;;;;;4980640;28;20546;-80
2023/09/28 01:40:57;;;;;;;4.07;3.30;;;18.50;99.90;;;;;;4976414;28;20242;-80
2023/09/28 01:43:24;;;;;;;3.33;2.70;;;18.60;99.90;;;;;;4981363;28;20849;-80
2023/09/28 01:45:50;;;;;;;3.50;2.50;;;18.50;99.90;;;;;;4982053;28;20542;-79
2023/09/28 01:48:17;;;;;;;4.17;3.00;;;18.60;99.90;;;;;;4980224;28;20927;-80
2023/09/28 01:50:43;;;;;;;4.30;2.67;;;18.60;99.90;;;;;;4979911;28;20227;-80
2023/09/28 01:53:10;;;;;;;3.47;2.73;;;18.60;99.90;;;;;;4980483;28;20832;-80
2023/09/28 01:55:36;;;;;;;3.07;2.50;;;18.50;99.90;;;;;;4980692;28;20466;-81
2023/09/28 01:58:07;;;;;;;3.20;2.80;;;18.50;99.90;;;;;;4980627;28;20451;-81
2023/09/28 02:00:33;;;;;;;3.50;2.67;;;18.40;99.90;;;;;;4978166;28;20499;-80
2023/09/28 02:03:01;;;;;;;3.10;2.80;;;18.40;99.90;;;;;;4979836;28;20455;-80
2023/09/28 02:05:32;;;;;;;2.80;2.50;;;18.40;99.90;;;;;;4979308;28;20455;-80
2023/09/28 02:07:59;;;;;;;3.37;3.03;;;18.40;99.90;;;;;;4973180;28;20957;-80
2023/09/28 02:10:25;;;;;;;3.23;2.93;;;18.50;99.90;;;;;;4980589;28;20557;-80
2023/09/28 02:12:51;;;;;;;4.20;2.80;;;18.40;99.90;;;;;;4979566;28;20446;-80
2023/09/28 02:15:19;;;;;;;3.90;2.80;;;18.40;99.90;;;;;;4979061;28;20459;-80
2023/09/28 02:17:46;;;;;;;3.90;3.27;;;18.40;99.90;;;;;;4978616;28;20458;-80
2023/09/28 02:20:15;;;;;;;3.10;2.80;;;18.50;99.90;;;;;;4979436;28;21032;-80
2023/09/28 02:22:43;;;;;;;3.00;2.33;;;18.50;99.90;;;;;;4979308;28;20486;-80
2023/09/28 02:25:10;;;;;;;3.30;2.43;;;18.40;99.90;;;;;;4978126;28;20550;-79
2023/09/28 02:27:37;;;;;;;4.43;2.73;;;18.50;99.90;;;;;;4978112;28;20463;-78
2023/09/28 02:30:05;;;;;;;3.30;2.43;;;18.40;99.90;;;;;;4979470;28;20662;-79
2023/09/28 02:32:34;;;;;;;3.20;2.50;;;18.40;99.90;;;;;;4979237;28;20471;-78
2023/09/28 02:34:59;;;;;;;5.07;2.67;;;18.40;99.90;;;;;;4979562;28;20460;-79
2023/09/28 02:37:26;;;;;;;4.57;3.00;;;18.40;99.90;;;;;;4978587;28;20469;-77
2023/09/28 02:39:52;;;;;;;2.83;2.33;;;18.40;99.90;;;;;;4977344;28;20686;-79
2023/09/28 02:42:19;;;;;;;3.10;2.33;;;18.30;99.90;;;;;;4980075;28;20465;-79
2023/09/28 02:44:45;;;;;;;2.70;2.23;;;18.30;99.90;;;;;;4971659;28;20236;-78
2023/09/28 02:47:11;;;;;;;5.20;2.60;;;18.30;99.90;;;;;;4970141;28;20456;-77
2023/09/28 02:49:39;;;;;;;4.57;2.87;;;18.30;99.90;;;;;;4974823;28;20284;-78
2023/09/28 02:52:06;;;;;;;3.40;2.93;;;18.30;99.90;;;;;;4977807;28;20857;-79
2023/09/28 02:54:32;;;;;;;4.20;2.90;;;18.30;99.90;;;;;;4978411;28;20920;-79
2023/09/28 02:56:59;;;;;;;3.17;2.20;;;18.30;99.90;;;;;;4978496;28;20517;-76
2023/09/28 02:59:27;;;;;;;3.17;2.00;;;18.20;99.90;;;;;;4977081;28;20670;-78
2023/09/28 03:01:55;;;;;;;3.00;2.40;;;18.20;99.90;;;;;;4976564;28;20545;-78
2023/09/28 03:04:20;;;;;;;5.67;2.70;;;18.20;99.90;;;;;;4977513;28;20461;-78
2023/09/28 03:06:52;;;;;;;4.30;2.83;;;18.10;99.90;;;;;;4977314;28;20526;-78
2023/09/28 03:09:18;;;;;;;3.73;2.60;;;18.10;99.90;;;;;;4972653;28;20295;-78
2023/09/28 03:11:45;;;;;;;3.40;2.93;;;18.10;99.90;;;;;;4975819;28;20466;-78
2023/09/28 03:14:11;;;;;;;3.00;2.13;;;18.10;99.90;;;;;;4977056;28;20494;-78
2023/09/28 03:16:39;;;;;;;3.47;2.30;;;18.10;99.90;;;;;;4976244;28;20981;-77
2023/09/28 03:19:06;;;;;;;3.50;2.63;;;18.10;99.90;;;;;;4975113;28;20461;-78
2023/09/28 03:21:33;;;;;;;5.60;2.90;;;18.10;99.90;;;;;;4975702;28;20490;-77
2023/09/28 03:24:02;;;;;;;3.30;2.70;;;18.00;99.90;;;;;;4975506;28;20491;-78
2023/09/28 03:26:29;;;;;;;3.00;2.50;;;18.00;99.90;;;;;;4975903;28;20965;-77
2023/09/28 03:28:56;;;;;;;4.73;2.60;;;18.00;99.90;;;;;;4969823;28;20458;-79
2023/09/28 03:31:22;;;;;;;3.70;2.50;;;18.00;99.90;;;;;;4976623;28;20490;-78
2023/09/28 03:33:48;;;;;;;4.57;2.50;;;18.00;99.90;;;;;;4968973;28;20462;-78
2023/09/28 03:36:14;;;;;;;3.13;2.30;;;18.00;99.90;;;;;;4972053;28;20217;-78
2023/09/28 03:38:41;;;;;;;4.57;3.00;;;17.90;99.90;;;;;;4967752;28;20456;-78
2023/09/28 03:41:09;;;;;;;3.30;2.87;;;17.90;99.90;;;;;;4976813;28;20231;-80
2023/09/28 03:43:36;;;;;;;2.97;2.50;;;17.90;99.90;;;;;;4975933;28;20541;-79
2023/09/28 03:46:03;;;;;;;3.27;2.50;;;17.90;99.90;;;;;;4974787;28;20466;-78
2023/09/28 03:48:30;;;;;;;5.80;2.50;;;17.90;99.90;;;;;;4973402;28;20458;-77
2023/09/28 03:50:57;;;;;;;3.13;2.40;;;17.80;99.90;;;;;;4974461;28;20511;-79
2023/09/28 03:53:24;;;;;;;3.70;2.50;;;17.80;99.90;;;;;;4971371;28;20447;-78
2023/09/28 03:55:50;;;;;;;2.87;2.37;;;17.80;99.90;;;;;;4971078;28;20466;-79
2023/09/28 03:58:19;;;;;;;4.23;2.80;;;17.80;99.90;;;;;;4974918;28;20461;-79
2023/09/28 04:00:45;;;;;;;2.90;2.33;;;17.80;99.90;;;;;;4974089;28;20501;-77
2023/09/28 04:03:12;;;;;;;4.50;2.77;;;17.80;99.90;;;;;;4974607;28;20462;-79
2023/09/28 04:05:39;;;;;;;4.20;2.80;;;17.70;99.90;;;;;;4974056;28;20490;-79
2023/09/28 04:08:07;;;;;;;2.83;2.40;;;17.80;99.90;;;;;;4974030;28;20964;-78
2023/09/28 04:10:34;;;;;;;2.73;2.37;;;17.70;99.90;;;;;;4974948;28;20492;-79
2023/09/28 04:13:02;;;;;;;3.17;2.50;;;17.70;99.90;;;;;;4967763;28;20466;-78
2023/09/28 04:15:30;;;;;;;4.80;2.60;;;17.70;99.90;;;;;;4974545;28;20465;-78
2023/09/28 04:17:57;;;;;;;7.23;3.00;;;17.70;99.90;;;;;;4974134;28;20461;-78
2023/09/28 04:20:24;;;;;;;3.57;3.10;;;17.60;99.90;;;;;;4974147;28;20496;-79
2023/09/28 04:22:51;;;;;;;5.53;2.60;;;17.60;99.90;;;;;;4976198;28;20496;-80
2023/09/28 04:25:20;;;;;;;4.00;2.90;;;17.60;99.90;;;;;;4974465;28;21035;-80
2023/09/28 04:27:47;;;;;;;3.73;2.87;;;17.60;99.90;;;;;;4974908;28;20461;-79
2023/09/28 04:30:14;;;;;;;3.80;3.13;;;17.50;99.90;;;;;;4976573;28;20488;-81
2023/09/28 04:32:42;;;;;;;5.23;2.93;;;17.50;99.90;;;;;;4975706;28;20921;-79
2023/09/28 04:35:10;;;;;;;3.73;2.73;;;17.40;99.90;;;;;;4970502;28;20463;-79
2023/09/28 04:37:37;;;;;;;3.83;2.60;;;17.40;99.90;;;;;;4973945;28;20463;-79
2023/09/28 04:40:05;;;;;;;3.00;2.70;;;17.40;99.90;;;;;;4968958;28;20506;-81
2023/09/28 04:42:32;;;;;;;3.87;2.87;;;17.40;99.90;;;;;;4966049;28;20985;-78
2023/09/28 04:44:59;;;;;;;4.40;3.00;;;17.40;99.90;;;;;;4975273;28;20462;-79
2023/09/28 04:47:26;;;;;;;5.87;4.13;;;17.40;99.90;;;;;;4974496;28;20493;-79
2023/09/28 04:49:55;;;;;;;4.80;3.03;;;17.40;99.90;;;;;;4978432;28;20518;-79
2023/09/28 04:52:22;;;;;;;4.37;3.40;;;17.40;99.90;;;;;;4976797;28;20842;-79
2023/09/28 04:54:49;;;;;;;3.33;2.70;;;17.40;99.90;;;;;;4979670;28;20468;-79
2023/09/28 04:57:16;;;;;;;4.07;2.97;;;17.30;99.90;;;;;;4984648;28;20495;-79
2023/09/28 04:59:43;;;;;;;4.70;3.27;;;17.30;99.90;;;;;;4984379;28;20491;-79
2023/09/28 05:02:10;;;;;;;4.20;3.20;;;17.30;99.90;;;;;;4985192;28;20492;-79
2023/09/28 05:04:37;;;;;;;4.47;3.17;;;17.30;99.90;;;;;;4984616;28;20464;-79
2023/09/28 05:07:05;;;;;;;3.70;2.80;;;17.20;99.90;;;;;;4984188;28;20528;-80
2023/09/28 05:09:32;;;;;;;3.60;2.73;;;17.20;99.90;;;;;;4977175;28;21005;-78
2023/09/28 05:12:01;;;;;;;5.53;3.23;;;17.30;99.90;;;;;;4977769;28;20462;-79
2023/09/28 05:14:27;;;;;;;4.00;3.00;;;17.30;99.90;;;;;;4978357;28;20466;-79
2023/09/28 05:16:55;;;;;;;3.97;2.93;;;17.30;99.90;;;;;;4970954;28;20462;-80
2023/09/28 05:19:22;;;;;;;4.63;3.00;;;17.30;99.90;;;;;;4983213;28;20563;-79
2023/09/28 05:21:48;;;;;;;3.57;2.83;;;17.30;99.90;;;;;;4978720;28;20492;-79
2023/09/28 05:24:17;;;;;;;3.33;2.83;;;17.30;99.90;;;;;;4970854;28;20457;-79
2023/09/28 05:26:44;;;;;;;2.93;2.53;;;17.40;99.90;;;;;;4974963;28;20987;-79
2023/09/28 05:29:11;;;;;;;3.73;2.77;;;17.40;99.90;;;;;;4972040;28;20470;-79
2023/09/28 05:31:37;;;;;;;3.40;2.70;;;17.50;99.90;;;;;;4975603;28;20524;-79
2023/09/28 05:34:04;;;;;;;4.37;2.97;;;17.50;99.90;;;;;;4965135;28;20520;-79
2023/09/28 05:36:31;;;;;;;4.50;2.90;;;17.50;99.90;;;;;;4978070;28;20458;-79
2023/09/28 05:38:58;;;;;;;4.33;3.43;;;17.50;99.90;;;;;;4978195;28;20457;-79
2023/09/28 05:41:26;;;;;;;4.90;4.10;;;17.50;99.90;;;;;;4969578;28;20490;-79
2023/09/28 05:43:53;;;;;;;5.00;3.33;;;17.50;99.90;;;;;;4978441;28;20461;-79
2023/09/28 05:46:19;;;;;;;4.53;3.83;;;17.60;99.90;;;;;;4978461;28;20465;-79
2023/09/28 05:48:47;;;;;;;5.80;4.30;;;17.50;99.90;;;;;;4978254;28;20537;-79
2023/09/28 05:51:15;;;;;;;6.07;3.83;;;17.50;99.90;;;;;;4979108;28;20496;-80
2023/09/28 05:53:41;;;;;;;6.27;3.50;;;17.50;99.90;;;;;;4976915;28;20845;-80
2023/09/28 05:56:08;;;;;;;4.10;2.83;;;17.50;99.90;;;;;;4972648;28;20454;-79
2023/09/28 05:58:36;;;;;;;4.50;3.27;;;17.40;99.90;;;;;;4971375;28;20453;-79
2023/09/28 06:01:07;;;;;;;4.13;3.23;;;17.40;99.90;;;;;;4982193;28;20585;-79
2023/09/28 06:03:36;;;;;;;5.13;3.70;;;17.40;99.90;;;;;;4985167;28;20455;-79
2023/09/28 06:06:14;;;;;;;7.43;3.53;;;17.40;99.90;;;;;;4983376;28;20458;-79
2023/09/28 06:08:40;;;;;;;4.53;3.57;;;17.40;99.90;;;;;;4981408;28;20475;-78
2023/09/28 06:11:11;;;;;;;4.60;3.30;;;17.40;99.90;;;;;;4983532;28;20479;-78
2023/09/28 06:13:39;;;;;;;8.47;3.43;;;17.40;99.90;;;;;;4969390;28;20460;-78
2023/09/28 06:16:06;;;;;;;8.03;3.53;;;17.40;99.90;;;;;;4965428;28;20458;-79
2023/09/28 06:18:33;;;;;;;5.67;3.53;;;17.40;99.90;;;;;;4972120;28;20545;-80
2023/09/28 06:21:00;;;;;;;9.27;3.93;;;17.40;99.90;;;;;;4976802;28;20530;-80
2023/09/28 06:23:27;;;;;;;9.37;5.23;;;17.50;99.90;;;;;;4977691;28;20457;-81
2023/09/28 06:25:54;;;;;;;4.80;3.60;;;17.50;99.90;;;;;;4968984;28;20536;-80
2023/09/28 06:28:24;;;;;;;5.70;3.70;;;17.60;99.90;;;;;;4976026;28;20462;-77
2023/09/28 06:30:53;;;;;;;5.10;3.60;;;17.70;99.90;;;;;;4974819;28;20496;-81
2023/09/28 06:33:20;;;;;;;4.97;3.57;;;17.70;99.90;;;;;;4975260;28;20489;-80
2023/09/28 06:35:46;;;;;;;4.60;4.10;;;17.80;99.90;;;;;;4974421;28;20469;-77
2023/09/28 06:38:13;;;;;;;4.23;3.57;;;17.80;99.90;;;;;;4978604;28;20482;-79
2023/09/28 06:40:41;;;;;;;4.80;3.80;;;17.90;99.90;;;;;;4971413;28;20479;-78
2023/09/28 06:43:08;;;;;;;5.83;3.57;;;17.90;99.90;;;;;;4977359;28;20469;-78
2023/09/28 06:45:35;;;;;;;5.50;3.63;;;18.00;99.90;;;;;;4972163;28;20508;-79
2023/09/28 06:48:04;;;;;;;7.40;4.20;;;18.10;99.90;;;;;;4977366;28;20949;-79
2023/09/28 06:50:31;;;;;;;4.57;3.70;;;18.10;99.90;;;;;;4972651;28;20494;-79
2023/09/28 06:52:58;;;;;;;5.03;3.33;;;18.20;99.90;;;;;;4976204;28;20536;-80
2023/09/28 06:55:25;;;;;;;5.90;3.70;;;18.20;99.90;;;;;;4971990;28;20546;-79
2023/09/28 06:57:52;;;;;;;5.03;3.30;;;18.20;99.90;;;;;;4969351;28;20973;-80
2023/09/28 07:00:20;;;;;;;4.60;3.17;;;18.30;99.90;;;;;;4972105;28;20472;-81
2023/09/28 07:02:48;;;;;;;4.60;3.40;;;18.30;99.90;;;;;;4975897;28;21215;-79
2023/09/28 07:05:16;;;;;;;5.43;3.70;;;18.40;99.90;;;;;;4974494;28;20459;-79
2023/09/28 07:07:44;;;;;;;4.60;3.73;;;18.40;99.90;;;;;;4976241;28;20461;-81
2023/09/28 07:10:11;;;;;;;5.33;3.80;;;18.50;99.90;;;;;;4971179;28;20857;-80
2023/09/28 07:12:38;;;;;;;8.80;4.33;;;18.50;99.90;;;;;;4976090;28;20494;-80
2023/09/28 07:15:06;;;;;;;6.73;4.10;;;18.50;99.90;;;;;;4974998;28;20957;-79
2023/09/28 07:17:33;;;;;;;4.73;3.70;;;18.60;99.90;;;;;;4976244;28;20482;-81
2023/09/28 07:20:00;;;;;;;6.70;3.60;;;18.70;99.90;;;;;;4975889;28;20558;-81
2023/09/28 07:22:28;;;;;;;5.53;3.63;;;18.70;99.90;;;;;;4977219;28;20499;-81
2023/09/28 07:24:56;;;;;;;5.73;3.30;;;18.80;99.90;;;;;;4965879;28;20462;-81
2023/09/28 07:27:23;;;;;;;4.70;3.37;;;18.80;99.90;;;;;;4979597;28;20463;-81
2023/09/28 07:29:50;;;;;;;5.93;3.93;;;18.80;99.90;;;;;;4974270;28;20548;-79
2023/09/28 07:32:17;;;;;;;7.33;4.40;;;18.90;99.90;;;;;;4981596;28;20486;-80
2023/09/28 07:34:43;;;;;;;4.80;3.90;;;18.90;99.90;;;;;;4976670;28;20470;-80
2023/09/28 07:37:10;;;;;;;9.13;3.80;;;18.90;99.90;;;;;;4984211;28;20458;-80
2023/09/28 07:39:38;;;;;;;5.07;3.73;;;19.00;99.90;;;;;;4983393;28;20479;-80
2023/09/28 07:42:07;;;;;;;6.97;4.60;;;19.10;99.90;;;;;;4984676;28;20495;-79
2023/09/28 07:44:34;;;;;;;7.47;4.20;;;19.10;99.90;;;;;;4983469;28;20496;-80
2023/09/28 07:47:01;;;;;;;6.73;3.83;;;19.20;99.90;;;;;;4985002;28;20486;-80
2023/09/28 07:49:28;;;;;;;5.53;4.13;;;19.20;99.90;;;;;;4979350;28;20860;-81
2023/09/28 07:51:55;;;;;;;6.90;4.73;;;19.20;99.90;;;;;;4981907;28;20958;-80
2023/09/28 07:54:22;;;;;;;5.70;3.70;;;19.20;99.90;;;;;;4980286;28;20455;-81
2023/09/28 07:56:51;;;;;;;6.07;3.80;;;19.20;99.90;;;;;;4980575;28;20471;-79
2023/09/28 07:59:18;;;;;;;7.57;4.70;;;19.30;99.90;;;;;;4975708;28;21009;-81
2023/09/28 08:01:44;;;;;;;7.53;4.33;;;19.30;99.90;;;;;;4981471;28;20497;-80
2023/09/28 08:04:11;;;;;;;6.30;4.00;;;19.40;99.90;;;;;;4972559;28;20456;-81
2023/09/28 08:06:39;;;;;;;9.40;4.30;;;19.40;99.90;;;;;;4973441;28;20455;-81
2023/09/28 08:09:06;;;;;;;6.70;4.50;;;19.40;99.90;;;;;;4977088;28;20498;-80
2023/09/28 08:11:35;;;;;;;7.60;3.80;;;19.40;99.90;;;;;;4975681;28;20546;-80
2023/09/28 08:14:05;;;;;;;6.20;4.30;;;19.50;99.90;;;;;;4976921;28;21014;-81
2023/09/28 08:16:31;;;;;;;7.20;4.00;;;19.60;99.90;;;;;;4977655;28;20491;-81
2023/09/28 08:18:58;;;;;;;6.37;4.07;;;19.80;99.90;;;;;;4977291;28;20466;-81
2023/09/28 08:21:26;;;;;;;4.83;3.53;;;19.80;99.90;;;;;;4979885;28;20965;-79
2023/09/28 08:23:53;;;;;;;4.63;3.27;;;19.90;99.90;;;;;;4980214;28;20459;-80
2023/09/28 08:26:20;;;;;;;7.03;3.73;;;20.00;99.90;;;;;;4979674;28;20459;-79
2023/09/28 08:28:46;;;;;;;6.10;4.70;;;20.10;99.90;;;;;;4978901;28;20455;-79
2023/09/28 08:31:14;;;;;;;5.13;3.30;;;20.20;99.90;;;;;;4973583;28;20476;-80
2023/09/28 08:33:42;;;;;;;5.37;3.10;;;20.20;99.90;;;;;;4978360;28;20818;-79
2023/09/28 08:36:09;;;;;;;4.77;3.03;;;20.20;99.90;;;;;;4976525;28;20826;-79
2023/09/28 08:38:37;;;;;;;4.73;3.47;;;20.10;99.90;;;;;;4979854;28;20463;-79
2023/09/28 08:41:06;;;;;;;7.83;3.83;;;20.10;99.90;;;;;;4973746;28;20487;-79
2023/09/28 08:43:41;;;;;;;6.47;3.17;;;20.20;99.90;;;;;;4979351;28;20500;-79
2023/09/28 08:46:11;;;;;;;7.70;3.83;;;20.30;99.90;;;;;;4980494;28;20461;-81
2023/09/28 08:48:45;;;;;;;7.43;3.77;;;20.50;99.90;;;;;;4980146;28;20462;-79
2023/09/28 08:51:12;;;;;;;9.00;4.03;;;20.50;99.90;;;;;;4978267;28;20483;-80
2023/09/28 08:53:39;;;;;;;5.53;3.40;;;20.50;99.90;;;;;;4980272;28;20455;-80
2023/09/28 08:56:07;;;;;;;5.97;3.50;;;20.50;99.90;;;;;;4974270;28;20461;-80
2023/09/28 08:58:36;;;;;;;5.63;3.70;;;20.70;99.90;;;;;;4980184;28;20917;-81
2023/09/28 09:01:04;;;;;;;7.60;3.30;;;20.80;99.90;;;;;;4981162;28;20474;-80
2023/09/28 09:03:33;;;;;;;8.43;3.43;;;20.90;99.90;;;;;;4980181;28;20581;-78
2023/09/28 09:06:04;;;;;;;8.30;4.03;;;20.80;99.90;;;;;;4979109;28;20466;-79
2023/09/28 09:08:34;;;;;;;6.83;3.80;;;20.90;99.90;;;;;;4978958;28;20455;-81
2023/09/28 09:11:01;;;;;;;5.67;3.83;;;20.90;99.90;;;;;;4979874;28;20479;-80
2023/09/28 09:13:29;;;;;;;5.90;3.20;;;21.00;99.90;;;;;;4978782;28;20466;-81
2023/09/28 09:15:56;;;;;;;8.90;3.60;;;21.00;99.90;;;;;;4972632;28;20550;-79
2023/09/28 09:18:25;;;;;;;9.07;3.70;;;21.00;99.90;;;;;;4980142;28;20882;-81
2023/09/28 09:21:00;;;;;;;8.80;4.17;;;20.90;99.90;;;;;;4977625;28;20479;-79
2023/09/28 09:23:30;;;;;;;6.20;3.60;;;20.90;99.90;;;;;;4978080;28;20490;-79
2023/09/28 09:25:57;;;;;;;5.83;3.33;;;20.90;99.90;;;;;;4981679;28;20448;-78
2023/09/28 09:28:32;;;;;;;7.43;3.27;;;21.00;99.90;;;;;;4980216;28;20447;-80
2023/09/28 09:30:59;;;;;;;6.27;3.93;;;21.00;99.90;;;;;;4973257;28;20502;-79
2023/09/28 09:33:27;;;;;;;5.20;2.90;;;21.00;99.90;;;;;;4971531;28;20447;-79
2023/09/28 09:35:53;;;;;;;7.10;4.37;;;21.00;99.90;;;;;;4970447;28;20534;-80
2023/09/28 09:38:24;;;;;;;9.53;4.80;;;21.00;99.90;;;;;;4980321;28;20866;-80
2023/09/28 09:40:59;;;;;;;8.43;4.77;;;21.10;99.90;;;;;;4972005;28;20475;-79
2023/09/28 09:43:31;;;;;;;8.80;4.00;;;21.20;99.90;;;;;;4978886;28;20494;-80
2023/09/28 09:45:58;;;;;;;6.20;4.03;;;21.10;99.90;;;;;;4969162;28;20459;-81
2023/09/28 09:48:25;;;;;;;8.73;4.23;;;21.00;99.90;;;;;;4976181;28;20542;-80
2023/09/28 09:50:53;;;;;;;8.40;3.97;;;21.10;99.90;;;;;;4975579;28;20478;-80
2023/09/28 09:53:22;;;;;;;7.60;3.93;;;21.00;99.90;;;;;;4980899;28;20487;-80
2023/09/28 09:55:52;;;;;;;7.67;3.70;;;20.90;99.90;;;;;;4981850;28;20558;-80
2023/09/28 09:58:27;;;;;;;5.60;4.17;;;20.90;99.90;;;;;;4980048;28;20466;-80
2023/09/28 10:00:55;;;;;;;7.83;3.40;;;20.90;99.90;;;;;;4978779;28;20486;-79
2023/09/28 10:03:22;;;;;;;5.43;3.60;;;20.90;99.90;;;;;;4979213;28;20505;-78
2023/09/28 10:05:50;;;;;;;5.17;4.20;;;21.00;99.90;;;;;;4976244;28;20466;-79
2023/09/28 10:08:19;;;;;;;7.20;3.43;;;21.20;99.90;;;;;;4983624;28;20443;-78
2023/09/28 10:10:47;;;;;;;5.37;3.27;;;21.20;99.90;;;;;;4976989;28;20496;-79
2023/09/28 10:13:15;;;;;;;7.60;3.10;;;21.20;99.90;;;;;;4976838;28;20530;-80
2023/09/28 10:15:45;;;;;;;8.07;3.50;;;21.20;99.90;;;;;;4977522;28;20468;-81
2023/09/28 10:18:14;;;;;;;5.97;2.87;;;21.20;99.90;;;;;;4978522;28;20563;-81
2023/09/28 10:20:41;;;;;;;7.53;4.03;;;21.30;99.90;;;;;;4974586;28;20484;-80
2023/09/28 10:23:26;;;;;;;8.23;3.33;;;21.40;99.90;;;;;;4971763;28;20529;-81
2023/09/28 10:25:58;;;;;;;5.73;2.83;;;21.30;99.90;;;;;;4976230;28;21046;-81
2023/09/28 10:28:25;;;;;;;8.50;3.10;;;21.30;99.90;;;;;;4976754;28;20458;-79
2023/09/28 10:31:08;;;;;;;5.93;3.53;;;21.40;99.90;;;;;;4975887;28;20478;-80
2023/09/28 10:33:35;;;;;;;4.60;2.93;;;21.60;99.90;;;;;;4976792;28;20443;-80
2023/09/28 10:36:14;;;;;;;6.03;3.10;;;21.80;99.90;;;;;;4975828;28;20576;-80
2023/09/28 10:38:42;;;;;;;6.23;2.67;;;21.90;99.90;;;;;;4976324;28;20832;-80
2023/09/28 10:41:10;;;;;;;5.53;3.63;;;22.00;99.90;;;;;;4975998;28;20854;-79
2023/09/28 10:43:40;;;;;;;7.57;3.30;;;22.10;99.90;;;;;;4976719;28;20580;-80
2023/09/28 10:46:09;;;;;;;11.63;3.20;;;22.10;99.90;;;;;;4976394;28;20454;-79
2023/09/28 10:48:40;;;;;;;6.53;3.50;;;22.10;99.90;;;;;;4976868;28;20455;-80
2023/09/28 10:51:12;;;;;;;7.73;2.90;;;22.10;99.90;;;;;;4976490;28;20467;-79
2023/09/28 10:53:39;;;;;;;5.83;3.30;;;22.10;99.90;;;;;;4976528;28;20827;-79
2023/09/28 10:56:06;;;;;;;7.63;3.63;;;22.00;99.90;;;;;;4976980;28;20451;-80
2023/09/28 10:58:34;;;;;;;6.20;3.23;;;22.10;99.90;;;;;;4976392;28;20808;-82
2023/09/28 11:01:04;;;;;;;8.73;3.60;;;22.10;99.90;;;;;;4976312;28;20467;-81
2023/09/28 11:03:33;;;;;;;7.67;3.90;;;22.50;99.90;;;;;;4976225;28;20494;-81
2023/09/28 11:06:01;;;;;;;7.77;3.60;;;22.60;99.90;;;;;;4975899;28;20459;-80
2023/09/28 11:08:27;;;;;;;9.00;3.40;;;22.60;99.90;;;;;;4975826;28;20499;-81
2023/09/28 11:10:58;;;;;;;6.13;3.13;;;22.60;99.90;;;;;;4969217;28;20861;-80
2023/09/28 11:13:25;;;;;;;6.40;3.30;;;22.60;99.90;;;;;;4975440;28;20969;-80
2023/09/28 11:15:52;;;;;;;9.47;3.67;;;22.50;99.90;;;;;;4974851;28;20467;-80
2023/09/28 11:18:21;;;;;;;8.77;3.73;;;22.60;99.90;;;;;;4968993;28;20464;-80
2023/09/28 11:20:51;;;;;;;6.50;3.30;;;22.60;99.90;;;;;;4973794;28;20476;-80
2023/09/28 11:23:19;;;;;;;8.07;3.90;;;22.50;99.90;;;;;;4973549;28;20511;-82
2023/09/28 11:25:46;;;;;;;7.03;3.20;;;22.40;99.90;;;;;;4980908;28;20460;-80
2023/09/28 11:28:14;;;;;;;7.13;3.67;;;22.40;99.90;;;;;;4973569;28;20942;-80
2023/09/28 11:30:41;;;;;;;6.37;3.37;;;22.20;99.90;;;;;;4982134;28;20538;-80
2023/09/28 11:33:08;;;;;;;6.43;4.00;;;22.30;99.90;;;;;;4981276;28;20459;-81
2023/09/28 11:35:37;;;;;;;7.37;3.70;;;22.30;99.90;;;;;;4977233;28;20494;-80
2023/09/28 11:38:09;;;;;;;6.10;3.00;;;22.30;99.90;;;;;;4972020;28;20522;-79
2023/09/28 11:40:36;;;;;;;5.03;3.80;;;22.30;99.90;;;;;;4975986;28;20478;-81
2023/09/28 11:43:04;;;;;;;8.30;3.77;;;22.30;99.90;;;;;;4972866;28;20488;-82
2023/09/28 11:45:35;;;;;;;5.83;3.37;;;22.30;99.90;;;;;;4976063;28;20522;-81
2023/09/28 11:48:05;;;;;;;6.03;3.77;;;22.20;99.90;;;;;;4972547;28;20482;-80
2023/09/28 11:50:33;;;;;;;9.43;3.30;;;22.20;99.90;;;;;;4976584;28;20471;-81
2023/09/28 11:53:00;;;;;;;5.97;3.67;;;22.20;99.90;;;;;;4975738;28;20535;-82
2023/09/28 11:55:28;;;;;;;8.10;5.60;;;22.10;99.90;;;;;;4976343;28;20455;-79
2023/09/28 11:57:59;;;;;;;12.20;5.40;;;22.00;99.90;;;;;;4975736;28;20463;-79
2023/09/28 12:00:26;;;;;;;6.00;3.50;;;21.90;99.90;;;;;;4975953;28;20475;-79
2023/09/28 12:02:53;;;;;;;6.90;3.67;;;22.00;99.90;;;;;;4972569;28;20489;-81
2023/09/28 12:05:20;;;;;;;5.63;3.70;;;22.10;99.90;;;;;;4976827;28;20841;-81
2023/09/28 12:07:46;;;;;;;7.33;3.63;;;22.20;99.90;;;;;;4972558;28;20522;-81
2023/09/28 12:10:14;;;;;;;4.93;3.20;;;22.10;99.90;;;;;;4969102;28;20479;-80
2023/09/28 12:12:42;;;;;;;5.73;3.30;;;22.20;99.90;;;;;;4973194;28;20466;-82
2023/09/28 12:15:11;;;;;;;8.53;3.83;;;22.10;99.90;;;;;;4978177;28;20490;-80
2023/09/28 12:17:39;;;;;;;4.13;3.30;;;22.10;99.90;;;;;;4977167;28;20456;-82
2023/09/28 12:20:07;;;;;;;4.10;2.87;;;22.20;99.90;;;;;;4976660;28;20479;-79
2023/09/28 12:22:34;;;;;;;8.63;4.03;;;22.30;99.90;;;;;;4969063;28;20457;-81
2023/09/28 12:25:01;;;;;;;9.03;3.60;;;22.40;99.90;;;;;;4977919;28;20452;-82
2023/09/28 12:27:28;;;;;;;4.97;3.17;;;22.50;99.90;;;;;;4976984;28;20456;-80
2023/09/28 12:29:56;;;;;;;7.40;3.23;;;22.60;99.90;;;;;;4977079;28;20899;-81
2023/09/28 12:32:23;;;;;;;12.57;5.20;;;22.70;99.90;;;;;;4976417;28;20443;-80
2023/09/28 12:34:50;;;;;;;7.80;3.97;;;22.80;99.90;;;;;;4976497;28;20457;-80
2023/09/28 12:37:17;;;;;;;5.87;3.40;;;22.90;99.90;;;;;;4974079;28;20532;-81
2023/09/28 12:39:44;;;;;;;11.73;3.97;;;23.00;99.90;;;;;;4969406;28;20476;-80
2023/09/28 12:42:15;;;;;;;10.23;2.83;;;22.90;99.90;;;;;;4977528;28;20448;-81
2023/09/28 12:44:42;;;;;;;5.20;2.93;;;22.80;99.90;;;;;;4977578;28;20491;-79
2023/09/28 12:47:11;;;;;;;6.27;2.93;;;22.80;99.90;;;;;;4975447;28;20467;-79